createdAt,value
2018-07-24T00:01:59.058Z,6.87
2018-07-24T00:04:28.007Z,5.35
2018-07-24T00:06:57.026Z,6.72
2018-07-24T00:09:26.015Z,5.45
2018-07-24T00:11:54.986Z,5.60
2018-07-24T00:14:24.000Z,6.37
2018-07-24T00:16:52.996Z,5.92
2018-07-24T00:19:21.965Z,6.83
2018-07-24T00:21:50.721Z,6.22
2018-07-24T00:24:19.710Z,6.28
2018-07-24T00:26:48.746Z,6.30
2018-07-24T00:29:17.753Z,5.30
2018-07-24T00:31:46.732Z,6.22
2018-07-24T00:34:15.736Z,5.50
2018-07-24T00:36:44.767Z,7.33
2018-07-24T00:39:13.606Z,5.78
2018-07-24T00:41:42.470Z,5.90
2018-07-24T00:44:11.321Z,5.97
2018-07-24T00:46:40.163Z,6.47
2018-07-24T00:49:09.146Z,7.05
2018-07-24T00:51:38.102Z,5.95
2018-07-24T00:54:07.113Z,6.33
2018-07-24T00:56:35.846Z,6.65
2018-07-24T00:59:04.743Z,5.97
2018-07-24T01:01:33.735Z,7.15
2018-07-24T01:04:02.687Z,6.00
2018-07-24T01:06:31.653Z,6.22
2018-07-24T01:09:00.689Z,6.30
2018-07-24T01:11:29.417Z,6.42
2018-07-24T01:13:58.282Z,7.53
2018-07-24T01:16:27.102Z,7.40
2018-07-24T01:18:55.994Z,7.45
2018-07-24T01:21:24.791Z,8.00
2018-07-24T01:23:53.445Z,6.62
2018-07-24T01:26:22.326Z,6.92
2018-07-24T01:28:51.306Z,6.40
2018-07-24T01:31:20.298Z,7.30
2018-07-24T01:33:49.312Z,8.25
2018-07-24T01:36:18.340Z,6.55
2018-07-24T01:38:47.411Z,6.90
2018-07-24T01:41:16.453Z,6.12
2018-07-24T01:43:45.479Z,6.75
2018-07-24T01:46:14.461Z,6.72
2018-07-24T01:48:43.487Z,7.57
2018-07-24T01:51:12.464Z,7.53
2018-07-24T01:53:41.496Z,6.37
2018-07-24T01:56:10.475Z,10.72
2018-07-24T01:58:39.466Z,10.03
2018-07-24T02:01:08.531Z,9.33
2018-07-24T02:03:37.496Z,11.90
2018-07-24T02:06:06.939Z,9.68
2018-07-24T02:08:36.829Z,9.40
2018-07-24T02:20:27.020Z,7.85
2018-07-24T02:22:55.982Z,11.20
2018-07-24T02:25:24.968Z,12.25
2018-07-24T02:27:54.723Z,10.95
2018-07-24T02:30:23.592Z,11.90
2018-07-24T02:32:52.355Z,15.93
2018-07-24T02:35:21.243Z,13.40
2018-07-24T02:37:50.287Z,14.35
2018-07-24T02:40:19.223Z,13.40
2018-07-24T02:42:48.131Z,17.73
2018-07-24T02:45:17.144Z,18.87
2018-07-24T02:47:46.186Z,19.30
2018-07-24T02:50:15.221Z,20.23
2018-07-24T02:52:44.207Z,19.97
2018-07-24T02:55:13.318Z,17.90
2018-07-24T02:57:42.010Z,18.93
2018-07-24T03:00:10.979Z,18.90
2018-07-24T03:02:40.004Z,19.90
2018-07-24T03:05:09.015Z,22.50
2018-07-24T03:07:38.009Z,18.37
2018-07-24T03:10:07.316Z,20.70
2018-07-24T03:12:37.440Z,15.92
2018-07-24T03:15:07.324Z,16.35
2018-07-24T03:17:36.314Z,15.03
2018-07-24T03:20:05.309Z,16.77
2018-07-24T03:22:34.238Z,18.10
2018-07-24T03:25:03.336Z,12.40
2018-07-24T03:27:32.387Z,12.43
2018-07-24T03:30:01.383Z,14.03
2018-07-24T03:32:30.374Z,14.13
2018-07-24T03:34:59.373Z,16.93
2018-07-24T03:37:28.391Z,12.57
2018-07-24T03:39:57.351Z,15.23
2018-07-24T03:42:26.325Z,14.85
2018-07-24T03:44:55.337Z,17.77
2018-07-24T03:47:24.326Z,15.37
2018-07-24T03:49:53.062Z,16.27
2018-07-24T03:52:21.915Z,20.40
2018-07-24T03:54:50.667Z,19.50
2018-07-24T03:57:19.563Z,15.75
2018-07-24T03:59:48.628Z,17.27
2018-07-24T04:02:17.728Z,17.57
2018-07-24T04:04:46.763Z,17.67
2018-07-24T04:07:15.772Z,18.05
2018-07-24T04:09:45.456Z,16.35
2018-07-24T04:12:14.508Z,18.73
2018-07-24T04:14:43.526Z,18.17
2018-07-24T04:17:12.543Z,19.87
2018-07-24T04:19:41.623Z,18.45
2018-07-24T04:22:10.593Z,19.50
2018-07-24T04:24:39.575Z,19.30
2018-07-24T04:27:08.568Z,20.05
2018-07-24T04:29:38.496Z,18.07
2018-07-24T04:32:08.499Z,21.47
2018-07-24T04:34:37.530Z,20.40
2018-07-24T04:37:06.996Z,17.48
2018-07-24T04:39:36.282Z,18.80
2018-07-24T04:42:05.392Z,18.63
2018-07-24T04:44:34.354Z,18.07
2018-07-24T04:47:03.339Z,18.73
2018-07-24T04:49:32.142Z,19.60
2018-07-24T04:52:00.974Z,19.20
2018-07-24T04:54:30.012Z,19.42
2018-07-24T04:56:59.008Z,19.90
2018-07-24T04:59:28.162Z,16.80
2018-07-24T05:01:57.150Z,15.73
2018-07-24T05:04:26.112Z,15.27
2018-07-24T05:06:55.071Z,14.58
2018-07-24T05:09:24.080Z,12.98
2018-07-24T05:11:52.954Z,12.27
2018-07-24T05:14:21.950Z,13.50
2018-07-24T05:16:50.986Z,10.95
2018-07-24T05:19:19.951Z,11.35
2018-07-24T05:21:48.941Z,10.80
2018-07-24T05:24:17.976Z,10.25
2018-07-24T05:26:46.979Z,11.03
2018-07-24T05:29:16.019Z,10.13
2018-07-24T05:31:45.249Z,10.30
2018-07-24T05:34:14.207Z,10.40
2018-07-24T05:36:43.211Z,9.60
2018-07-24T05:39:12.779Z,9.25
2018-07-24T05:41:42.312Z,9.10
2018-07-24T05:44:11.307Z,9.75
2018-07-24T05:46:40.559Z,9.87
2018-07-24T05:49:10.927Z,8.92
2018-07-24T05:51:39.930Z,9.07
2018-07-24T05:54:09.588Z,9.13
2018-07-24T05:56:39.579Z,10.20
2018-07-24T05:59:09.342Z,9.93
2018-07-24T06:01:38.768Z,9.20
2018-07-24T06:04:07.773Z,9.40
2018-07-24T06:06:36.752Z,8.38
2018-07-24T06:09:07.123Z,9.08
2018-07-24T06:11:36.291Z,8.73
2018-07-24T06:14:05.459Z,8.77
2018-07-24T06:16:34.415Z,8.37
2018-07-24T06:19:03.442Z,7.50
2018-07-24T06:21:32.432Z,8.00
2018-07-24T06:24:01.403Z,6.60
2018-07-24T06:26:30.392Z,8.10
2018-07-24T06:28:59.395Z,6.50
2018-07-24T06:31:28.167Z,6.17
2018-07-24T06:33:56.998Z,7.22
2018-07-24T06:36:26.031Z,5.55
2018-07-24T06:38:55.042Z,6.70
2018-07-24T06:41:24.082Z,5.90
2018-07-24T06:43:53.115Z,5.10
2018-07-24T06:46:22.100Z,6.03
2018-07-24T06:48:51.139Z,5.23
2018-07-24T06:51:20.285Z,6.03
2018-07-24T06:53:49.456Z,4.92
2018-07-24T06:56:18.486Z,4.37
2018-07-24T06:58:47.500Z,5.10
2018-07-24T07:01:16.511Z,3.67
2018-07-24T07:03:45.523Z,5.03
2018-07-24T07:06:14.446Z,4.03
2018-07-24T07:08:43.488Z,4.15
2018-07-24T07:11:12.755Z,4.30
2018-07-24T07:13:41.764Z,3.50
2018-07-24T07:16:10.784Z,4.40
2018-07-24T07:18:40.235Z,4.10
2018-07-24T07:21:09.243Z,4.30
2018-07-24T07:23:38.223Z,3.40
2018-07-24T07:26:07.457Z,5.72
2018-07-24T07:28:36.404Z,4.43
2018-07-24T07:31:05.381Z,3.75
2018-07-24T07:33:34.352Z,4.78
2018-07-24T07:36:03.340Z,3.92
2018-07-24T07:38:32.377Z,5.10
2018-07-24T07:41:01.370Z,4.17
2018-07-24T07:43:30.371Z,3.47
2018-07-24T07:45:59.328Z,4.37
2018-07-24T07:48:28.326Z,4.50
2018-07-24T07:50:57.279Z,5.30
2018-07-24T07:53:26.268Z,4.00
2018-07-24T07:55:55.307Z,3.77
2018-07-24T07:58:24.051Z,3.98
2018-07-24T08:00:52.879Z,3.30
2018-07-24T08:03:21.856Z,4.20
2018-07-24T08:05:50.873Z,3.17
2018-07-24T08:08:19.916Z,4.17
2018-07-24T08:10:48.710Z,3.73
2018-07-24T08:13:18.117Z,4.22
2018-07-24T08:15:47.142Z,5.30
2018-07-24T08:18:16.180Z,5.80
2018-07-24T08:20:45.183Z,4.98
2018-07-24T08:23:14.203Z,4.47
2018-07-24T08:25:43.232Z,4.57
2018-07-24T08:28:12.970Z,5.97
2018-07-24T08:30:41.751Z,4.25
2018-07-24T08:33:10.771Z,5.30
2018-07-24T08:35:40.687Z,4.50
2018-07-24T08:38:10.303Z,4.00
2018-07-24T08:40:39.355Z,6.03
2018-07-24T08:43:08.180Z,4.53
2018-07-24T08:45:36.779Z,5.25
2018-07-24T08:48:05.438Z,3.90
2018-07-24T08:50:34.304Z,5.00
2018-07-24T08:53:03.425Z,5.37
2018-07-24T08:55:32.674Z,3.80
2018-07-24T08:58:01.364Z,5.30
2018-07-24T09:00:30.247Z,4.50
2018-07-24T09:02:59.124Z,4.62
2018-07-24T09:05:28.695Z,4.97
2018-07-24T09:07:57.692Z,4.10
2018-07-24T09:10:26.641Z,4.95
2018-07-24T09:12:55.631Z,4.50
2018-07-24T09:15:24.627Z,5.77
2018-07-24T09:17:53.670Z,3.80
2018-07-24T09:20:22.779Z,4.08
2018-07-24T09:22:51.791Z,5.30
2018-07-24T09:25:20.885Z,4.17
2018-07-24T09:27:49.883Z,5.45
2018-07-24T09:30:18.927Z,4.45
2018-07-24T09:32:47.966Z,4.65
2018-07-24T09:35:16.968Z,4.80
2018-07-24T09:37:46.045Z,4.33
2018-07-24T09:40:15.034Z,4.60
2018-07-24T09:42:43.843Z,4.05
2018-07-24T09:45:12.596Z,5.03
2018-07-24T09:47:41.459Z,5.17
2018-07-24T09:50:11.270Z,4.83
2018-07-24T09:52:41.148Z,5.35
2018-07-24T09:55:10.155Z,4.53
2018-07-24T09:57:39.111Z,4.60
2018-07-24T10:00:08.508Z,4.08
2018-07-24T10:02:38.122Z,5.03
2018-07-24T10:05:07.507Z,4.58
2018-07-24T10:07:36.656Z,4.47
2018-07-24T10:10:05.636Z,4.63
2018-07-24T10:12:34.436Z,3.83
2018-07-24T10:15:03.295Z,5.92
2018-07-24T10:17:32.268Z,4.50
2018-07-24T10:20:01.332Z,4.45
2018-07-24T10:22:30.083Z,5.05
2018-07-24T10:24:59.064Z,4.10
2018-07-24T10:27:28.004Z,4.72
2018-07-24T10:29:57.039Z,4.53
2018-07-24T10:32:25.818Z,4.53
2018-07-24T10:34:54.723Z,4.73
2018-07-24T10:37:23.947Z,4.87
2018-07-24T10:39:52.998Z,4.63
2018-07-24T10:42:21.986Z,3.70
2018-07-24T10:44:51.059Z,4.93
2018-07-24T10:47:21.013Z,4.20
2018-07-24T10:49:50.004Z,4.43
2018-07-24T10:52:19.050Z,5.28
2018-07-24T10:54:48.047Z,4.25
2018-07-24T10:57:17.053Z,5.00
2018-07-24T10:59:46.088Z,3.50
2018-07-24T11:02:15.035Z,4.45
2018-07-24T11:04:43.979Z,5.60
2018-07-24T11:07:13.012Z,3.50
2018-07-24T11:09:41.972Z,5.10
2018-07-24T11:12:11.615Z,4.72
2018-07-24T11:14:41.507Z,4.28
2018-07-24T11:17:11.359Z,4.72
2018-07-24T11:19:40.342Z,3.72
2018-07-24T11:22:09.532Z,4.80
2018-07-24T11:24:38.350Z,4.12
2018-07-24T11:27:07.476Z,3.72
2018-07-24T11:29:36.260Z,4.58
2018-07-24T11:32:05.095Z,3.47
2018-07-24T11:34:34.106Z,4.20
2018-07-24T11:37:03.074Z,3.40
2018-07-24T11:39:32.059Z,3.90
2018-07-24T11:42:01.016Z,3.90
2018-07-24T11:44:30.012Z,3.50
2018-07-24T11:46:58.996Z,4.87
2018-07-24T11:49:27.957Z,3.80
2018-07-24T11:51:57.770Z,4.00
2018-07-24T11:54:26.576Z,4.20
2018-07-24T11:56:55.568Z,3.52
2018-07-24T11:59:24.559Z,4.62
2018-07-24T12:01:53.604Z,3.15
2018-07-24T12:04:22.607Z,3.87
2018-07-24T12:06:51.625Z,4.22
2018-07-24T12:09:20.660Z,3.40
2018-07-24T12:11:49.747Z,3.77
2018-07-24T12:14:18.597Z,2.50
2018-07-24T12:16:47.463Z,3.27
2018-07-24T12:19:16.634Z,4.08
2018-07-24T12:21:45.635Z,3.17
2018-07-24T12:24:14.675Z,3.80
2018-07-24T12:26:43.775Z,2.80
2018-07-24T12:29:13.608Z,3.67
2018-07-24T12:31:42.807Z,2.80
2018-07-24T12:34:12.715Z,3.43
2018-07-24T12:36:41.669Z,2.70
2018-07-24T12:39:11.486Z,2.95
2018-07-24T12:41:40.548Z,3.55
2018-07-24T12:44:09.504Z,2.95
2018-07-24T12:46:38.520Z,3.75
2018-07-24T12:49:07.547Z,2.60
2018-07-24T12:51:36.532Z,3.30
2018-07-24T12:54:05.524Z,3.70
2018-07-24T12:56:34.515Z,2.80
2018-07-24T12:59:03.512Z,3.75
2018-07-24T13:01:32.271Z,3.08
2018-07-24T13:04:01.145Z,3.90
2018-07-24T13:06:30.095Z,3.60
2018-07-24T13:08:59.076Z,3.50
2018-07-24T13:11:28.100Z,3.87
2018-07-24T13:13:57.073Z,3.10
2018-07-24T13:16:26.088Z,3.85
2018-07-24T13:18:55.120Z,3.70
2018-07-24T13:21:24.366Z,3.55
2018-07-24T13:23:54.642Z,4.05
2018-07-24T13:26:23.425Z,3.42
2018-07-24T13:28:52.336Z,3.87
2018-07-24T13:31:22.059Z,3.98
2018-07-24T13:33:51.604Z,3.20
2018-07-24T13:36:20.603Z,3.45
2018-07-24T13:38:49.457Z,2.87
2018-07-24T13:41:18.375Z,3.67
2018-07-24T13:43:47.552Z,3.35
2018-07-24T13:46:16.723Z,3.25
2018-07-24T13:48:45.483Z,4.37
2018-07-24T13:51:14.315Z,3.20
2018-07-24T13:53:43.385Z,3.70
2018-07-24T13:56:13.284Z,3.60
2018-07-24T13:58:43.224Z,3.87
2018-07-24T14:01:12.204Z,4.22
2018-07-24T14:03:41.175Z,3.12
2018-07-24T14:06:10.032Z,4.42
2018-07-24T14:08:38.855Z,3.23
2018-07-24T14:11:07.847Z,3.58
2018-07-24T14:13:37.412Z,4.05
2018-07-24T14:16:06.192Z,2.97
2018-07-24T14:18:35.020Z,4.00
2018-07-24T14:21:04.072Z,3.42
2018-07-24T14:23:33.028Z,3.60
2018-07-24T14:26:02.048Z,3.40
2018-07-24T14:28:31.123Z,3.57
2018-07-24T14:31:00.123Z,4.63
2018-07-24T14:33:29.702Z,2.80
2018-07-24T14:35:58.699Z,4.30
2018-07-24T14:38:27.713Z,3.22
2018-07-24T14:40:56.745Z,3.57
2018-07-24T14:43:25.906Z,3.60
2018-07-24T14:45:54.895Z,3.10
2018-07-24T14:48:24.702Z,3.70
2018-07-24T14:50:53.747Z,2.98
2018-07-24T14:53:22.775Z,3.08
2018-07-24T14:55:51.646Z,3.67
2018-07-24T14:58:21.315Z,3.25
2018-07-24T15:00:50.295Z,4.17
2018-07-24T15:03:19.164Z,3.20
2018-07-24T15:05:48.505Z,3.37
2018-07-24T15:08:17.582Z,3.37
2018-07-24T15:10:46.583Z,3.10
2018-07-24T15:13:15.583Z,3.08
2018-07-24T15:15:44.538Z,2.65
2018-07-24T15:18:13.832Z,3.60
2018-07-24T15:20:43.517Z,3.00
2018-07-24T15:23:13.875Z,4.10
2018-07-24T15:25:43.667Z,2.87
2018-07-24T15:28:12.542Z,3.58
2018-07-24T15:30:41.608Z,3.33
2018-07-24T15:33:10.407Z,3.00
2018-07-24T15:35:39.825Z,4.62
2018-07-24T15:38:08.876Z,3.08
2018-07-24T15:40:37.883Z,3.27
2018-07-24T15:43:07.068Z,4.03
2018-07-24T15:45:37.427Z,2.83
2018-07-24T15:48:06.475Z,3.85
2018-07-24T15:50:35.329Z,3.03
2018-07-24T15:53:04.176Z,3.90
2018-07-24T15:55:32.957Z,2.70
2018-07-24T15:58:01.844Z,3.10
2018-07-24T16:00:30.830Z,3.92
2018-07-24T16:03:00.086Z,2.70
2018-07-24T16:05:29.115Z,3.83
2018-07-24T16:07:58.123Z,2.62
2018-07-24T16:10:27.101Z,3.42
2018-07-24T16:12:56.107Z,4.10
2018-07-24T16:15:25.142Z,3.50
2018-07-24T16:17:54.163Z,4.00
2018-07-24T16:20:23.184Z,2.77
2018-07-24T16:22:52.212Z,4.10
2018-07-24T16:25:20.983Z,2.83
2018-07-24T16:27:49.857Z,3.58
2018-07-24T16:30:18.948Z,4.83
2018-07-24T16:32:48.045Z,3.35
2018-07-24T16:35:17.032Z,4.63
2018-07-24T16:37:46.047Z,3.10
2018-07-24T16:40:15.312Z,3.77
2018-07-24T16:42:44.389Z,3.98
2018-07-24T16:45:14.333Z,3.20
2018-07-24T16:47:44.272Z,3.87
2018-07-24T16:50:27.366Z,3.12
2018-07-24T16:52:56.072Z,2.55
2018-07-24T16:55:25.043Z,3.60
2018-07-24T16:57:54.157Z,4.00
2018-07-24T17:00:23.704Z,3.75
2018-07-24T17:02:52.716Z,3.75
2018-07-24T17:05:22.235Z,3.42
2018-07-24T17:07:51.243Z,4.17
2018-07-24T17:10:20.340Z,3.40
2018-07-24T17:12:49.500Z,3.20
2018-07-24T17:15:18.484Z,3.98
2018-07-24T17:17:47.449Z,2.77
2018-07-24T17:20:16.703Z,3.77
2018-07-24T17:22:45.731Z,3.10
2018-07-24T17:25:15.685Z,4.42
2018-07-24T17:27:44.743Z,3.83
2018-07-24T17:30:14.586Z,3.38
2018-07-24T17:40:27.298Z,3.92
2018-07-24T17:42:56.268Z,4.17
2018-07-24T17:45:25.258Z,3.10
2018-07-24T17:47:54.280Z,4.17
2018-07-24T17:50:23.284Z,3.27
2018-07-24T17:52:52.339Z,2.85
2018-07-24T17:55:21.110Z,3.80
2018-07-24T17:57:50.132Z,2.98
2018-07-24T18:00:19.367Z,4.37
2018-07-24T18:02:48.100Z,3.40
2018-07-24T18:05:18.502Z,3.85
2018-07-24T18:07:47.353Z,3.40
2018-07-24T18:10:16.402Z,3.17
2018-07-24T18:12:45.254Z,4.40
2018-07-24T18:15:14.565Z,3.33
2018-07-24T18:17:43.657Z,3.67
2018-07-24T18:20:12.791Z,3.00
2018-07-24T18:22:41.843Z,3.83
2018-07-24T18:25:10.952Z,2.87
2018-07-24T18:27:39.978Z,3.98
2018-07-24T18:30:08.928Z,4.10
2018-07-24T18:32:37.719Z,3.45
2018-07-24T18:35:07.044Z,4.03
2018-07-24T18:37:35.831Z,3.30
2018-07-24T18:40:05.050Z,4.67
2018-07-24T18:42:33.900Z,4.22
2018-07-24T18:45:02.901Z,3.92
2018-07-24T18:47:32.305Z,4.60
2018-07-24T18:50:01.407Z,3.90
2018-07-24T18:52:30.451Z,5.33
2018-07-24T18:54:59.460Z,3.98
2018-07-24T18:57:28.505Z,4.10
2018-07-24T18:59:57.720Z,4.17
2018-07-24T19:02:26.962Z,4.22
2018-07-24T19:04:56.823Z,4.73
2018-07-24T19:07:25.752Z,4.05
2018-07-24T19:09:54.842Z,5.37
2018-07-24T19:12:23.953Z,3.90
2018-07-24T19:14:53.043Z,3.95
2018-07-24T19:17:22.180Z,4.42
2018-07-24T19:19:51.316Z,3.47
2018-07-24T19:22:20.397Z,4.25
2018-07-24T19:24:50.075Z,3.62
2018-07-24T19:27:19.437Z,3.90
2018-07-24T19:29:48.748Z,3.72
2018-07-24T19:32:18.057Z,3.80
2018-07-24T19:34:47.410Z,4.22
2018-07-24T19:37:17.378Z,4.02
2018-07-24T19:39:46.796Z,4.30
2018-07-24T19:42:16.443Z,3.25
2018-07-24T19:44:45.944Z,3.70
2018-07-24T19:47:15.768Z,3.72
2018-07-24T19:49:45.458Z,3.75
2018-07-24T19:52:15.722Z,4.10
2018-07-24T19:54:45.656Z,3.60
2018-07-24T19:57:15.156Z,4.12
2018-07-24T19:59:44.566Z,3.10
2018-07-24T20:02:13.894Z,3.55
2018-07-24T20:04:43.188Z,4.40
2018-07-24T20:07:12.770Z,3.72
2018-07-24T20:09:42.320Z,4.25
2018-07-24T20:12:11.849Z,3.33
2018-07-24T20:14:41.085Z,4.23
2018-07-24T20:17:11.378Z,3.70
2018-07-24T20:19:40.555Z,3.80
2018-07-24T20:22:09.704Z,3.95
2018-07-24T20:24:39.109Z,3.87
2018-07-24T20:27:08.165Z,4.45
2018-07-24T20:29:37.244Z,3.85
2018-07-24T20:32:06.472Z,3.92
2018-07-24T20:34:36.471Z,4.15
2018-07-24T20:37:05.543Z,3.80
2018-07-24T20:39:34.635Z,4.80
2018-07-24T20:42:04.032Z,3.77
2018-07-24T20:44:33.101Z,4.53
2018-07-24T20:47:01.918Z,3.87
2018-07-24T20:49:30.650Z,3.70
2018-07-24T20:51:59.560Z,4.57
2018-07-24T20:54:29.589Z,3.40
2018-07-24T20:56:58.636Z,4.53
2018-07-24T20:59:27.432Z,4.35
2018-07-24T21:01:56.384Z,3.70
2018-07-24T21:04:25.398Z,4.77
2018-07-24T21:06:54.396Z,3.95
2018-07-24T21:09:23.465Z,4.92
2018-07-24T21:11:52.464Z,3.97
2018-07-24T21:14:21.230Z,4.03
2018-07-24T21:16:50.203Z,4.50
2018-07-24T21:19:19.251Z,4.00
2018-07-24T21:21:48.050Z,4.28
2018-07-24T21:24:17.100Z,3.73
2018-07-24T21:26:46.392Z,4.23
2018-07-24T21:29:15.806Z,4.90
2018-07-24T21:31:44.739Z,4.12
2018-07-24T21:34:13.867Z,4.65
2018-07-24T21:36:42.884Z,4.37
2018-07-24T21:39:12.247Z,4.03
2018-07-24T21:41:41.121Z,5.00
2018-07-24T21:44:10.102Z,3.52
2018-07-24T21:46:39.071Z,4.80
2018-07-24T21:49:08.092Z,3.75
2018-07-24T21:51:37.068Z,4.25
2018-07-24T21:54:06.043Z,5.42
2018-07-24T21:56:35.032Z,3.52
2018-07-24T21:59:04.028Z,5.15
2018-07-24T22:01:33.016Z,4.60
2018-07-24T22:04:01.992Z,4.08
2018-07-24T22:06:30.999Z,4.70
2018-07-24T22:09:00.142Z,3.33
2018-07-24T22:11:29.048Z,5.40
2018-07-24T22:13:58.031Z,4.25
2018-07-24T22:16:26.796Z,4.22
2018-07-24T22:18:55.687Z,5.28
2018-07-24T22:21:24.656Z,4.25
2018-07-24T22:23:53.619Z,4.45
2018-07-24T22:26:22.662Z,4.92
2018-07-24T22:28:51.680Z,3.78
2018-07-24T22:31:20.679Z,5.10
2018-07-24T22:33:49.709Z,3.67
2018-07-24T22:36:18.719Z,5.22
2018-07-24T22:38:47.749Z,4.67
2018-07-24T22:41:16.917Z,4.80
2018-07-24T22:43:46.858Z,5.37
2018-07-24T22:46:16.783Z,3.90
2018-07-24T22:48:45.823Z,5.47
2018-07-24T22:51:14.591Z,4.10
2018-07-24T22:53:43.523Z,5.78
2018-07-24T22:56:12.577Z,4.50
2018-07-24T22:58:41.577Z,4.57
2018-07-24T23:01:10.526Z,5.67
2018-07-24T23:03:40.130Z,4.10
2018-07-24T23:06:09.129Z,5.80
2018-07-24T23:08:37.898Z,4.30
2018-07-24T23:11:06.783Z,4.15
2018-07-24T23:13:35.787Z,5.37
2018-07-24T23:16:04.799Z,3.83
2018-07-24T23:18:33.739Z,5.33
2018-07-24T23:21:02.527Z,3.97
2018-07-24T23:23:31.419Z,4.62
2018-07-24T23:26:00.392Z,5.25
2018-07-24T23:28:29.454Z,5.00
2018-07-24T23:30:58.191Z,4.83
2018-07-24T23:33:27.011Z,3.90
2018-07-24T23:35:55.995Z,5.13
2018-07-24T23:38:24.975Z,5.43
2018-07-24T23:40:53.954Z,4.00
2018-07-24T23:43:22.903Z,5.35
2018-07-24T23:45:51.889Z,4.25
2018-07-24T23:48:20.897Z,5.35
2018-07-24T23:50:49.862Z,4.30
2018-07-24T23:53:18.616Z,4.70
2018-07-24T23:55:47.596Z,5.47
2018-07-24T23:58:17.279Z,4.60
